Time;durP1;ratioP1;P1;durP2;ratioP2;P2;SDS_P1;SDS_P2;PMS_P1;PMS_P2;Temp;Humidity;BMP_temperature;BMP_pressure;BME280_temperature;BME280_humidity;BME280_pressure;Samples;Min_cycle;Max_cycle;Signal;HPM_P1;HPM_P2
2021/11/20 00:00:20;;;;;;;39.97;26.42;;;;;;;8.59;82.94;101275.88;5052887;28;20396;-63
2021/11/20 00:03:00;;;;;;;38.85;25.52;;;;;;;8.60;82.71;101273.34;5053872;28;20134;-64
2021/11/20 00:05:37;;;;;;;40.47;27.17;;;;;;;8.60;82.92;101264.72;5036490;28;20152;-63
2021/11/20 00:08:13;;;;;;;42.92;27.08;;;;;;;8.59;82.87;101269.00;5052548;28;20064;-63
2021/11/20 00:10:54;;;;;;;38.70;24.05;;;;;;;8.60;82.86;101272.47;5053803;28;20091;-63
2021/11/20 00:13:33;;;;;;;41.03;25.40;;;;;;;8.59;82.88;101263.81;5053585;28;20064;-62
2021/11/20 00:16:13;;;;;;;36.92;25.05;;;;;;;8.60;82.92;101264.72;5052615;28;20486;-63
2021/11/20 00:18:51;;;;;;;36.00;23.55;;;;;;;8.60;83.12;101262.16;5052534;28;20099;-63
2021/11/20 00:21:42;;;;;;;39.88;26.25;;;;;;;8.60;82.92;101249.22;5053611;28;20044;-63
2021/11/20 00:24:26;;;;;;;40.85;25.92;;;;;;;8.60;83.09;101241.47;5036068;28;20102;-62
2021/11/20 00:27:07;;;;;;;39.85;25.20;;;;;;;8.61;82.93;101248.41;5052636;28;20077;-63
2021/11/20 00:32:27;;;;;;;39.65;25.15;;;;;;;8.60;82.82;101247.50;5053384;28;20044;-63
2021/11/20 00:35:08;;;;;;;33.85;23.88;;;;;;;8.61;83.07;101236.34;5035297;28;20044;-63
2021/11/20 00:37:45;;;;;;;41.72;26.75;;;;;;;8.61;82.82;101226.00;5053413;28;20573;-63
2021/11/20 00:40:26;;;;;;;39.60;25.58;;;;;;;8.61;82.93;101236.34;5053453;28;20086;-63
2021/11/20 00:42:59;;;;;;;38.88;24.52;;;;;;;8.61;83.02;101238.06;5052539;28;20044;-63
2021/11/20 00:45:36;;;;;;;36.65;24.77;;;;;;;8.62;82.91;101242.44;5052379;28;20037;-63
2021/11/20 00:48:14;;;;;;;36.20;24.75;;;;;;;8.62;82.78;101234.66;5052044;28;20504;-64
2021/11/20 00:50:49;;;;;;;37.75;25.67;;;;;;;8.62;82.92;101226.91;5052022;28;20029;-63
2021/11/20 00:53:28;;;;;;;37.92;24.55;;;;;;;8.62;82.96;101234.66;5052111;28;20037;-63
2021/11/20 00:56:02;;;;;;;40.50;26.58;;;;;;;8.61;83.23;101232.91;5053545;28;20545;-63
2021/11/20 00:58:42;;;;;;;41.63;25.55;;;;;;;8.61;82.90;101230.31;5035569;28;20044;-63
2021/11/20 01:01:22;;;;;;;33.72;24.13;;;;;;;8.61;82.92;101235.50;5052986;28;20126;-62
2021/11/20 01:03:58;;;;;;;41.67;25.40;;;;;;;8.61;82.69;101228.59;5052289;28;20060;-62
2021/11/20 01:06:37;;;;;;;36.00;22.33;;;;;;;8.62;83.05;101229.50;5039554;28;20488;-62
2021/11/20 01:09:13;;;;;;;38.90;25.20;;;;;;;8.62;82.80;101229.50;5039309;28;20061;-63
2021/11/20 01:12:13;;;;;;;38.58;26.13;;;;;;;8.61;82.75;101232.91;5039119;28;20476;-63
2021/11/20 01:14:54;;;;;;;40.05;25.33;;;;;;;8.61;82.97;101227.72;5032193;28;20040;-63
2021/11/20 01:17:33;;;;;;;39.53;25.05;;;;;;;8.61;82.96;101222.56;5055607;28;20045;-62
2021/11/20 01:20:08;;;;;;;38.63;25.63;;;;;;;8.61;83.15;101212.22;5055614;28;20033;-63
2021/11/20 01:22:45;;;;;;;42.13;25.88;;;;;;;8.61;83.00;101210.50;5057291;28;20047;-63
2021/11/20 01:25:27;;;;;;;38.78;25.30;;;;;;;8.61;82.84;101215.69;5056629;28;20424;-63
2021/11/20 01:28:07;;;;;;;38.05;25.17;;;;;;;8.60;82.87;101211.31;5056788;28;20037;-62
2021/11/20 01:30:47;;;;;;;42.20;26.77;;;;;;;8.62;82.81;101224.34;5056619;28;20029;-63
2021/11/20 01:33:24;;;;;;;42.95;25.77;;;;;;;8.61;82.66;101217.41;5055287;28;20120;-63
2021/11/20 01:36:04;;;;;;;44.63;26.75;;;;;;;8.61;82.80;101205.34;5055591;28;20029;-64
2021/11/20 01:38:39;;;;;;;48.88;27.67;;;;;;;8.61;83.00;101197.59;5055290;28;20045;-63
2021/11/20 01:41:17;;;;;;;48.67;28.17;;;;;;;8.62;82.93;101214.00;5055195;28;20083;-63
2021/11/20 01:44:18;;;;;;;47.17;27.40;;;;;;;8.62;82.85;101211.41;5054924;28;20067;-63
2021/11/20 01:47:00;;;;;;;42.70;27.75;;;;;;;8.63;83.06;101208.88;5050929;28;20049;-63
2021/11/20 01:49:40;;;;;;;49.55;30.30;;;;;;;8.62;82.90;101195.91;5056265;28;20562;-63
2021/11/20 01:52:29;;;;;;;55.50;30.17;;;;;;;8.62;82.94;101196.78;5056490;28;20032;-63
2021/11/20 01:55:10;;;;;;;53.38;28.52;;;;;;;8.63;82.94;101202.84;5056175;28;20041;-63
2021/11/20 01:57:51;;;;;;;46.65;29.20;;;;;;;8.63;82.83;101195.97;5054802;28;20036;-64
2021/11/20 02:00:41;;;;;;;46.05;28.92;;;;;;;8.63;82.92;101193.38;5055256;28;20036;-63
2021/11/20 02:03:24;;;;;;;50.38;29.85;;;;;;;8.63;82.89;101184.75;5056020;28;20060;-63
2021/11/20 02:06:45;;;;;;;51.28;29.33;;;;;;;8.63;82.78;101185.63;5056064;28;20037;-63
2021/11/20 02:09:30;;;;;;;55.50;30.42;;;;;;;8.62;82.84;101186.44;5034368;28;20051;-63
2021/11/20 02:12:09;;;;;;;56.38;31.48;;;;;;;8.63;82.86;101179.59;5055972;28;20029;-62
2021/11/20 02:14:47;;;;;;;58.22;29.00;;;;;;;8.64;82.89;101181.34;5054389;28;20037;-63
2021/11/20 02:17:57;;;;;;;50.05;30.88;;;;;;;8.64;82.80;101176.19;5055393;28;20098;-63
2021/11/20 02:20:44;;;;;;;51.53;31.65;;;;;;;8.64;83.00;101174.47;5013994;28;20049;-63
2021/11/20 02:23:18;;;;;;;49.83;30.13;;;;;;;8.63;82.86;101171.84;5038557;28;20032;-63
2021/11/20 02:25:48;;;;;;;50.88;31.98;;;;;;;8.64;83.01;101176.19;5038397;28;20123;-64
2021/11/20 02:28:29;;;;;;;;;;;;;;;8.63;82.79;101171.84;5038003;28;20045;-63
2021/11/20 02:31:07;;;;;;;49.22;30.20;;;;;;;8.63;82.86;101175.28;5055668;28;19917;-63
2021/11/20 02:33:50;;;;;;;54.33;29.88;;;;;;;8.63;83.06;101171.84;5055719;28;20434;-63
2021/11/20 02:36:24;;;;;;;53.38;31.08;;;;;;;8.63;83.04;101158.91;5038134;28;20056;-63
2021/11/20 02:39:25;;;;;;;54.92;30.45;;;;;;;8.63;82.90;101161.50;5055479;28;20041;-63
2021/11/20 02:42:04;;;;;;;60.97;32.40;;;;;;;8.63;82.92;101161.50;5037855;28;20041;-63
2021/11/20 02:44:41;;;;;;;51.97;29.83;;;;;;;8.62;82.92;101158.00;5037676;28;20064;-62
2021/11/20 02:47:39;;;;;;;55.78;32.38;;;;;;;8.62;82.89;101147.66;5037302;28;20480;-62
2021/11/20 02:50:23;;;;;;;52.75;31.85;;;;;;;8.63;82.91;101140.81;5037194;28;20444;-62
2021/11/20 02:53:00;;;;;;;53.90;32.20;;;;;;;8.63;83.15;101144.28;5054038;28;20043;-63
2021/11/20 02:55:44;;;;;;;50.00;29.83;;;;;;;8.63;83.06;101144.28;5055191;28;20047;-62
2021/11/20 02:58:26;;;;;;;55.47;29.17;;;;;;;8.64;82.87;101142.59;5055092;28;20037;-63
2021/11/20 03:01:09;;;;;;;50.80;30.30;;;;;;;8.64;82.92;101146.03;5055040;28;20044;-63
2021/11/20 03:03:49;;;;;;;45.78;28.17;;;;;;;8.63;82.96;101138.25;5053798;28;20404;-62
2021/11/20 03:06:26;;;;;;;48.53;29.88;;;;;;;8.62;82.99;101134.75;5054865;28;20041;-63
2021/11/20 03:09:07;;;;;;;46.22;27.42;;;;;;;8.63;83.13;101133.06;5054694;28;20055;-63
2021/11/20 03:11:45;;;;;;;54.45;32.00;;;;;;;8.62;82.96;101128.72;5054779;28;20090;-63
2021/11/20 03:14:22;;;;;;;48.50;28.77;;;;;;;8.64;82.87;101124.50;5054985;28;20041;-63
2021/11/20 03:17:01;;;;;;;46.42;26.90;;;;;;;8.65;82.72;101128.81;5054946;28;20065;-63
2021/11/20 03:19:42;;;;;;;52.28;28.92;;;;;;;8.64;82.79;101116.75;5054834;28;20051;-62
2021/11/20 03:22:23;;;;;;;49.40;30.88;;;;;;;8.63;82.96;101120.16;5054569;28;20047;-63
2021/11/20 03:25:00;;;;;;;54.40;29.52;;;;;;;8.63;82.95;101113.25;5036771;28;20037;-63
2021/11/20 03:27:39;;;;;;;51.85;29.02;;;;;;;8.64;83.10;101109.84;5054005;28;20029;-63
2021/11/20 03:30:19;;;;;;;46.38;27.52;;;;;;;8.64;82.89;101115.03;5054234;28;20043;-63
2021/11/20 03:32:56;;;;;;;53.47;28.70;;;;;;;8.63;83.05;101104.63;5036949;28;20033;-63
2021/11/20 03:35:36;;;;;;;48.92;28.55;;;;;;;8.63;82.94;101105.50;5036698;28;20473;-63
2021/11/20 03:38:15;;;;;;;46.22;28.92;;;;;;;8.65;82.91;101111.63;5054273;28;20082;-62
2021/11/20 03:40:53;;;;;;;45.00;26.23;;;;;;;8.64;82.85;101099.53;5053007;28;20048;-62
2021/11/20 03:43:31;;;;;;;54.08;27.50;;;;;;;8.64;82.82;101093.50;5054364;28;20067;-63
2021/11/20 03:46:11;;;;;;;48.45;27.55;;;;;;;8.64;82.61;101098.66;5052841;28;20037;-63
2021/11/20 03:48:50;;;;;;;45.47;28.00;;;;;;;8.63;82.74;101096.88;5053915;28;20029;-63
2021/11/20 03:51:24;;;;;;;45.03;25.52;;;;;;;8.64;82.91;101091.78;5054067;28;20029;-63
2021/11/20 03:54:01;;;;;;;;;;;;;;;8.64;83.07;101088.31;5053558;28;20082;-63
2021/11/20 03:56:42;;;;;;;39.75;25.50;;;;;;;8.63;82.72;101096.88;5054110;28;19913;-63
2021/11/20 03:59:19;;;;;;;43.53;25.30;;;;;;;8.63;82.94;101096.88;5053830;28;20053;-63
2021/11/20 04:01:59;;;;;;;44.58;26.58;;;;;;;8.63;83.11;101094.31;5053799;28;20052;-63
2021/11/20 04:04:36;;;;;;;38.65;25.63;;;;;;;8.62;82.54;101092.53;5052755;28;20076;-64
2021/11/20 04:07:13;;;;;;;47.83;25.98;;;;;;;8.63;82.82;101090.00;5052525;28;20055;-63
2021/11/20 04:09:53;;;;;;;44.00;25.42;;;;;;;8.62;83.16;101096.00;5053071;28;20033;-63
2021/11/20 04:12:36;;;;;;;46.85;27.20;;;;;;;8.64;83.17;101098.66;5052605;28;20465;-62
2021/11/20 04:15:12;;;;;;;43.88;24.45;;;;;;;8.63;82.78;101105.50;5053795;28;20040;-62
2021/11/20 04:17:49;;;;;;;43.33;25.35;;;;;;;8.63;82.83;101096.88;5035802;28;20050;-63
2021/11/20 04:20:25;;;;;;;47.63;22.77;;;;;;;8.64;82.95;101106.41;5052596;28;20056;-63
2021/11/20 04:23:05;;;;;;;43.38;24.88;;;;;;;8.63;82.96;101102.91;5053954;28;20033;-63
2021/11/20 04:25:43;;;;;;;38.10;22.98;;;;;;;8.63;82.86;101096.88;5052433;28;20079;-63
2021/11/20 04:28:25;;;;;;;40.70;24.77;;;;;;;8.63;83.11;101097.75;5052172;28;20033;-62
2021/11/20 04:30:56;;;;;;;40.28;23.88;;;;;;;8.63;82.95;101102.06;5053506;28;20037;-63
2021/11/20 04:33:34;;;;;;;43.38;24.20;;;;;;;8.63;82.77;101091.72;5035966;28;20040;-62
2021/11/20 04:36:14;;;;;;;37.33;22.30;;;;;;;8.63;82.70;101094.31;5053585;28;20037;-62
2021/11/20 04:38:52;;;;;;;45.72;21.25;;;;;;;8.63;82.79;101086.56;5053235;28;20086;-62
2021/11/20 04:41:29;;;;;;;38.08;23.65;;;;;;;8.62;82.71;101085.66;5053607;28;20500;-63
2021/11/20 04:44:08;;;;;;;34.17;22.83;;;;;;;8.62;82.77;101085.66;5052157;28;20033;-63
2021/11/20 04:46:50;;;;;;;37.60;22.23;;;;;;;8.62;82.79;101080.47;5052329;28;20037;-63
2021/11/20 04:49:27;;;;;;;38.97;24.67;;;;;;;8.61;82.91;101078.72;5053136;28;20033;-63
2021/11/20 04:52:04;;;;;;;37.15;22.60;;;;;;;8.62;82.80;101074.44;5052368;28;20040;-62
2021/11/20 04:54:40;;;;;;;34.53;22.63;;;;;;;8.61;82.67;101073.56;5035283;28;20037;-63
2021/11/20 04:57:17;;;;;;;36.80;21.63;;;;;;;8.62;82.90;101084.78;5053178;28;20057;-63
2021/11/20 05:00:01;;;;;;;33.55;22.42;;;;;;;8.62;82.93;101084.78;5036198;28;20039;-63
2021/11/20 05:02:38;;;;;;;33.15;20.95;;;;;;;8.61;82.79;101072.69;5051950;28;20404;-62
2021/11/20 05:05:14;;;;;;;34.65;21.85;;;;;;;8.60;82.93;101066.63;5035211;28;20118;-63
2021/11/20 05:07:50;;;;;;;32.53;21.13;;;;;;;8.60;82.71;101069.19;5053188;28;20040;-63
2021/11/20 05:10:24;;;;;;;32.97;20.85;;;;;;;8.62;82.89;101064.13;5053566;28;20107;-64
2021/11/20 05:13:02;;;;;;;33.35;20.42;;;;;;;8.60;82.86;101069.19;5053473;28;20033;-63
2021/11/20 05:15:40;;;;;;;31.23;19.75;;;;;;;8.60;82.93;101066.63;5053184;28;20122;-62
2021/11/20 05:18:10;;;;;;;29.90;19.83;;;;;;;8.60;82.59;101064.03;5053101;28;20140;-63
2021/11/20 05:20:50;;;;;;;31.40;20.60;;;;;;;8.60;82.84;101058.00;5052921;28;20036;-63
2021/11/20 05:23:30;;;;;;;27.77;18.70;;;;;;;8.60;82.53;101063.16;5051826;28;20048;-62
2021/11/20 05:26:08;;;;;;;30.35;19.40;;;;;;;8.59;82.87;101061.41;5053218;28;20043;-63
2021/11/20 05:28:56;;;;;;;29.10;19.20;;;;;;;8.58;82.89;101051.88;5052853;28;20400;-63
2021/11/20 05:31:27;;;;;;;27.55;17.75;;;;;;;8.58;82.84;101055.34;5051455;28;20044;-62
2021/11/20 05:34:03;;;;;;;29.10;20.15;;;;;;;8.58;83.05;101052.75;5052703;28;20047;-63
2021/11/20 05:36:41;;;;;;;25.73;17.92;;;;;;;8.57;82.62;101043.22;5053073;28;20041;-62
2021/11/20 05:39:20;;;;;;;28.33;18.67;;;;;;;8.58;82.92;101039.81;5051810;28;20056;-63
2021/11/20 05:41:58;;;;;;;28.17;18.67;;;;;;;8.57;82.77;101030.31;5052162;28;20041;-62
2021/11/20 05:44:40;;;;;;;26.35;18.00;;;;;;;8.57;82.73;101038.06;5052982;28;20041;-63
2021/11/20 05:47:23;;;;;;;28.40;18.48;;;;;;;8.57;82.87;101043.22;5051570;28;20033;-62
2021/11/20 05:50:00;;;;;;;32.22;18.48;;;;;;;8.58;82.61;101041.53;5051814;28;20041;-63
2021/11/20 05:52:37;;;;;;;29.02;19.38;;;;;;;8.58;82.86;101044.13;5054704;28;20541;-64
2021/11/20 05:55:15;;;;;;;24.70;16.42;;;;;;;8.57;82.68;101040.66;5054586;28;20060;-64
2021/11/20 05:57:51;;;;;;;27.73;18.98;;;;;;;8.57;82.82;101038.06;5056277;28;20043;-64
2021/11/20 06:00:34;;;;;;;25.42;18.13;;;;;;;8.57;82.65;101043.22;5056098;28;20507;-63
2021/11/20 06:03:14;;;;;;;27.13;19.08;;;;;;;8.56;82.77;101033.75;5056211;28;20473;-63
2021/11/20 06:05:51;;;;;;;28.90;19.02;;;;;;;8.56;82.77;101038.91;5038108;28;20044;-63
2021/11/20 06:08:30;;;;;;;29.98;17.92;;;;;;;8.56;82.86;101033.75;5054793;28;20396;-62
2021/11/20 06:11:08;;;;;;;26.20;17.92;;;;;;;8.56;82.64;101038.91;5054585;28;20056;-63
2021/11/20 06:13:42;;;;;;;24.48;17.73;;;;;;;8.56;82.54;101031.16;5056099;28;20037;-63
2021/11/20 06:16:18;;;;;;;29.13;19.08;;;;;;;8.56;82.70;101025.09;5054659;28;20430;-63
2021/11/20 06:18:56;;;;;;;26.77;18.13;;;;;;;8.55;82.85;101025.91;5054704;28;20116;-63
2021/11/20 06:21:33;;;;;;;26.58;17.92;;;;;;;8.55;82.35;101031.06;5056210;28;20095;-63
2021/11/20 06:24:10;;;;;;;27.23;18.33;;;;;;;8.55;82.86;101028.50;5054774;28;20037;-63
2021/11/20 06:26:50;;;;;;;28.75;18.35;;;;;;;8.55;82.66;101036.25;5054623;28;20037;-62
2021/11/20 06:29:27;;;;;;;25.75;16.83;;;;;;;8.55;82.82;101037.16;5055558;28;20033;-62
2021/11/20 06:32:03;;;;;;;27.42;17.83;;;;;;;8.55;82.77;101025.91;5055739;28;20029;-62
2021/11/20 06:34:41;;;;;;;27.77;18.67;;;;;;;8.54;82.82;101025.03;5054249;28;20033;-63
2021/11/20 06:37:19;;;;;;;27.13;17.15;;;;;;;8.55;82.42;101026.81;5055591;28;20041;-62
2021/11/20 06:39:55;;;;;;;26.85;17.60;;;;;;;8.53;82.66;101016.41;5055507;28;20542;-63
2021/11/20 06:42:30;;;;;;;30.35;19.75;;;;;;;8.55;82.74;101031.97;5055642;28;20061;-62
2021/11/20 06:45:16;;;;;;;25.65;17.95;;;;;;;8.55;82.94;101026.81;5055316;28;20032;-62
2021/11/20 06:47:59;;;;;;;27.92;18.15;;;;;;;8.55;82.76;101031.06;5037291;28;20102;-62
2021/11/20 06:50:38;;;;;;;28.85;18.77;;;;;;;8.53;82.87;101018.97;5037327;28;20064;-63
2021/11/20 06:53:16;;;;;;;23.83;17.17;;;;;;;8.55;82.51;101031.06;5054525;28;20032;-62
2021/11/20 06:55:52;;;;;;;25.45;17.70;;;;;;;8.54;82.71;101027.63;5055400;28;20029;-63
2021/11/20 06:58:52;;;;;;;27.95;17.30;;;;;;;8.54;82.73;101035.38;5055279;28;20045;-63
2021/11/20 07:01:20;;;;;;;25.75;16.42;;;;;;;8.54;82.61;101027.63;5054928;28;20045;-62
2021/11/20 07:03:56;;;;;;;27.02;18.50;;;;;;;8.55;82.75;101033.66;5053867;28;20041;-62
2021/11/20 07:06:50;;;;;;;27.23;17.33;;;;;;;8.54;82.78;101037.97;5053924;28;20484;-63
2021/11/20 07:09:33;;;;;;;25.55;17.90;;;;;;;8.55;82.50;101033.66;5033548;28;20079;-63
2021/11/20 07:12:04;;;;;;;25.00;17.08;;;;;;;8.54;82.71;101032.78;5055047;28;20045;-63
2021/11/20 07:14:33;;;;;;;25.25;16.50;;;;;;;8.54;82.97;101030.22;5037187;28;20128;-62
2021/11/20 07:17:13;;;;;;;25.23;18.23;;;;;;;8.54;82.74;101032.78;5053415;28;20041;-63
2021/11/20 07:19:49;;;;;;;23.83;17.27;;;;;;;8.53;82.62;101034.47;5054535;28;20511;-63
2021/11/20 07:22:25;;;;;;;26.13;17.52;;;;;;;8.53;82.68;101031.91;5055032;28;20128;-64
2021/11/20 07:25:01;;;;;;;24.95;17.42;;;;;;;8.53;82.73;101029.31;5053389;28;20102;-62
2021/11/20 07:27:36;;;;;;;29.45;16.98;;;;;;;8.54;82.52;101030.22;5052935;28;20044;-63
2021/11/20 07:30:14;;;;;;;27.40;17.90;;;;;;;8.55;82.69;101036.25;5053485;28;20472;-63
2021/11/20 07:32:45;;;;;;;28.60;17.40;;;;;;;8.53;82.57;101029.31;5036286;28;20487;-62
2021/11/20 07:35:24;;;;;;;25.00;16.95;;;;;;;8.55;82.73;101028.50;5053020;28;20552;-62
2021/11/20 07:37:50;;;;;;;26.52;16.52;;;;;;;8.55;82.73;101025.91;5036449;28;20033;-63
2021/11/20 07:40:23;;;;;;;27.75;17.58;;;;;;;8.56;82.80;101027.69;5053093;28;20033;-63
2021/11/20 07:42:51;;;;;;;25.42;16.08;;;;;;;8.55;82.67;101021.66;5036272;28;20055;-63
2021/11/20 07:45:20;;;;;;;23.17;15.02;;;;;;;8.56;82.77;101028.56;5052854;28;20107;-63
2021/11/20 07:47:53;;;;;;;22.95;15.98;;;;;;;8.56;82.57;101027.69;5052661;28;20091;-63
2021/11/20 07:50:24;;;;;;;24.23;16.48;;;;;;;8.55;82.72;101023.31;5054002;28;20056;-63
2021/11/20 07:52:50;;;;;;;23.70;16.52;;;;;;;8.55;82.76;101024.22;5054376;28;20427;-63
2021/11/20 07:55:28;;;;;;;22.70;15.10;;;;;;;8.56;82.82;101023.41;5053889;28;20029;-63
2021/11/20 07:57:56;;;;;;;24.55;16.35;;;;;;;8.56;82.69;101031.16;5053273;28;20139;-62
2021/11/20 08:00:30;;;;;;;23.80;15.52;;;;;;;8.56;82.87;101022.50;5036052;28;20032;-63
2021/11/20 08:02:58;;;;;;;22.50;16.30;;;;;;;8.56;82.90;101017.34;5052763;28;20041;-63
2021/11/20 08:05:29;;;;;;;25.98;17.90;;;;;;;8.55;82.74;101013.00;5035917;28;20056;-64
2021/11/20 08:08:05;;;;;;;26.05;16.85;;;;;;;8.55;82.49;101016.47;5052409;28;20033;-64
2021/11/20 08:10:34;;;;;;;26.02;17.02;;;;;;;8.56;82.62;101014.75;5052317;28;20037;-63
2021/11/20 08:13:08;;;;;;;26.30;16.45;;;;;;;8.55;82.64;101021.66;5036423;28;20439;-64
2021/11/20 08:15:41;;;;;;;23.35;15.70;;;;;;;8.56;82.83;101007.00;5035082;28;20495;-63
2021/11/20 08:18:15;;;;;;;22.08;16.38;;;;;;;8.55;82.66;101003.56;5052458;28;20140;-62
2021/11/20 08:20:48;;;;;;;23.58;15.77;;;;;;;8.56;82.87;101001.84;5036022;28;20037;-63
2021/11/20 08:23:20;;;;;;;22.05;15.68;;;;;;;8.56;82.84;100999.25;5052723;28;20036;-63
2021/11/20 08:25:49;;;;;;;22.63;16.52;;;;;;;8.53;82.73;100995.72;5035774;28;20040;-62
2021/11/20 08:28:21;;;;;;;22.80;15.50;;;;;;;8.53;82.78;100990.56;5053581;28;20124;-63
2021/11/20 08:30:53;;;;;;;21.23;15.02;;;;;;;8.55;82.77;100988.06;5053482;28;20036;-63
2021/11/20 08:33:25;;;;;;;25.10;17.40;;;;;;;8.53;82.51;100982.81;5052394;28;20040;-63
2021/11/20 08:35:54;;;;;;;23.30;16.98;;;;;;;8.55;82.59;100989.75;5052458;28;20041;-64
2021/11/20 08:38:28;;;;;;;27.60;17.30;;;;;;;8.55;82.71;100984.56;5052195;28;20090;-63
2021/11/20 08:41:01;;;;;;;26.35;19.00;;;;;;;8.54;82.52;100983.69;5053567;28;20075;-63
2021/11/20 08:43:34;;;;;;;21.73;15.43;;;;;;;8.54;82.67;100983.69;5053566;28;20385;-62
2021/11/20 08:46:05;;;;;;;22.58;16.10;;;;;;;8.53;82.63;100969.03;5052414;28;20044;-63
2021/11/20 08:48:37;;;;;;;24.15;17.33;;;;;;;8.52;82.68;100970.69;5052282;28;20120;-63
2021/11/20 08:51:11;;;;;;;21.80;15.95;;;;;;;8.53;82.60;100972.47;5053430;28;20094;-63
2021/11/20 08:53:40;;;;;;;24.95;17.35;;;;;;;8.52;82.67;100970.69;5053210;28;20029;-63
2021/11/20 08:56:13;;;;;;;24.73;16.25;;;;;;;8.52;82.76;100981.03;5053250;28;20037;-63
2021/11/20 08:58:49;;;;;;;25.17;17.63;;;;;;;8.51;82.56;100981.84;5052431;28;20033;-63
2021/11/20 09:01:28;;;;;;;23.70;16.63;;;;;;;8.52;82.58;100980.16;5053086;28;20516;-63
2021/11/20 09:04:09;;;;;;;22.95;16.38;;;;;;;8.49;82.51;100978.31;5035766;28;20451;-63
2021/11/20 09:07:13;;;;;;;21.95;15.25;;;;;;;8.51;82.48;100975.81;5035210;28;20076;-63
2021/11/20 09:09:54;;;;;;;21.38;15.77;;;;;;;8.50;82.40;100968.88;5040789;28;20045;-63
2021/11/20 09:12:38;;;;;;;26.02;16.23;;;;;;;8.48;82.55;100961.09;5051944;28;20059;-64
2021/11/20 09:15:30;;;;;;;25.73;16.45;;;;;;;8.49;82.50;100967.13;5051657;28;20051;-63
2021/11/20 09:17:59;;;;;;;27.48;17.45;;;;;;;8.49;82.48;100962.81;5051907;28;20044;-63
2021/11/20 09:20:31;;;;;;;24.67;16.05;;;;;;;8.47;82.44;100964.47;5051571;28;20056;-63
2021/11/20 09:22:59;;;;;;;25.58;17.35;;;;;;;8.49;82.27;100964.53;5052974;28;20104;-63
2021/11/20 09:25:25;;;;;;;23.88;15.57;;;;;;;8.49;82.66;100972.28;5035062;28;20504;-63
2021/11/20 09:27:51;;;;;;;24.15;17.40;;;;;;;8.48;82.38;100961.09;5054790;28;20044;-63
2021/11/20 09:30:41;;;;;;;22.23;15.20;;;;;;;8.48;82.30;100955.94;5056713;28;20068;-63
2021/11/20 09:33:10;;;;;;;25.30;15.93;;;;;;;8.48;82.48;100961.09;5038992;28;20033;-63
2021/11/20 09:35:45;;;;;;;24.35;15.65;;;;;;;8.49;82.13;100959.38;5055671;28;20044;-62
2021/11/20 09:38:16;;;;;;;22.80;16.40;;;;;;;8.49;82.41;100957.66;5056809;28;20037;-63
2021/11/20 09:40:56;;;;;;;26.60;16.73;;;;;;;8.49;82.20;100954.22;5038681;28;20041;-62
2021/11/20 09:43:29;;;;;;;23.92;16.92;;;;;;;8.49;82.45;100949.91;5055540;28;20032;-63
2021/11/20 09:46:01;;;;;;;24.90;16.83;;;;;;;8.47;82.51;100959.28;5038854;28;20389;-63
2021/11/20 09:48:37;;;;;;;24.90;17.55;;;;;;;8.46;81.92;100956.63;5055300;28;20494;-63
2021/11/20 09:51:10;;;;;;;22.40;15.38;;;;;;;8.48;82.26;100957.59;5038844;28;20041;-62
2021/11/20 09:53:44;;;;;;;20.08;15.27;;;;;;;8.46;82.34;100965.28;5038373;28;20167;-63
2021/11/20 09:56:13;;;;;;;25.58;16.50;;;;;;;8.46;82.21;100961.81;5056377;28;20029;-63
2021/11/20 09:59:04;;;;;;;21.95;15.95;;;;;;;8.46;82.33;100954.94;5054961;28;20488;-63
2021/11/20 10:01:55;;;;;;;22.70;16.02;;;;;;;8.46;82.30;100949.78;5022942;28;20045;-62
2021/11/20 10:04:46;;;;;;;24.05;14.85;;;;;;;8.45;82.41;100948.00;5038210;28;20489;-62
2021/11/20 10:07:46;;;;;;;21.08;14.68;;;;;;;8.45;82.14;100949.69;5055171;28;20033;-63
2021/11/20 10:10:22;;;;;;;22.77;15.15;;;;;;;8.46;81.89;100947.19;5051464;28;20136;-63
2021/11/20 10:13:19;;;;;;;22.55;14.98;;;;;;;8.45;82.41;100948.00;5056056;28;20040;-62
2021/11/20 10:16:29;;;;;;;22.58;14.93;;;;;;;8.44;82.46;100937.59;5046558;28;20045;-62
2021/11/20 10:19:08;;;;;;;21.27;15.52;;;;;;;8.43;82.23;100941.00;4997610;28;20176;-63
2021/11/20 10:21:57;;;;;;;22.58;15.43;;;;;;;8.44;82.16;100941.09;5013942;28;20076;-62
2021/11/20 10:24:49;;;;;;;22.20;16.35;;;;;;;8.42;82.11;100937.56;5044436;28;20227;-62
2021/11/20 10:27:20;;;;;;;22.90;15.45;;;;;;;8.44;82.09;100935.03;5054616;28;20064;-63
2021/11/20 10:30:01;;;;;;;21.40;15.77;;;;;;;8.43;82.23;100931.56;5054260;28;20123;-63
2021/11/20 10:32:38;;;;;;;19.65;14.35;;;;;;;8.41;82.16;100924.59;5037568;28;20091;-63
2021/11/20 10:35:27;;;;;;;24.27;15.25;;;;;;;8.41;81.95;100925.47;5037642;28;20553;-63
2021/11/20 10:38:12;;;;;;;23.38;15.05;;;;;;;8.42;82.26;100928.91;5037319;28;20041;-62
2021/11/20 10:40:43;;;;;;;27.27;17.58;;;;;;;8.40;82.03;100917.66;5038288;28;20041;-62
2021/11/20 10:43:27;;;;;;;22.23;17.35;;;;;;;8.41;82.13;100909.97;5037308;28;20476;-63
2021/11/20 10:46:07;;;;;;;21.65;15.95;;;;;;;8.40;82.03;100902.16;5037733;28;20518;-63
2021/11/20 10:48:43;;;;;;;22.17;15.25;;;;;;;8.40;81.94;100894.41;5053639;28;20041;-63
2021/11/20 10:52:09;;;;;;;22.92;16.65;;;;;;;8.40;81.97;100891.84;5038180;28;20175;-62
2021/11/20 10:54:54;;;;;;;25.67;17.58;;;;;;;8.38;81.99;100895.22;5013015;28;20030;-63
2021/11/20 10:57:19;;;;;;;25.40;16.27;;;;;;;8.40;82.15;100891.84;5013523;28;20104;-62
2021/11/20 11:00:04;;;;;;;21.45;14.68;;;;;;;8.39;82.06;100883.19;5038072;28;20497;-63
2021/11/20 11:02:48;;;;;;;21.80;15.52;;;;;;;8.41;81.77;100878.09;5054762;28;20408;-63
2021/11/20 11:05:21;;;;;;;20.85;15.70;;;;;;;8.41;81.84;100873.78;5053761;28;20415;-62
2021/11/20 11:07:55;;;;;;;22.88;17.15;;;;;;;8.41;82.04;100862.59;5053762;28;20029;-63
2021/11/20 11:10:46;;;;;;;20.48;14.85;;;;;;;8.42;82.00;100856.56;5054840;28;20043;-63
2021/11/20 11:13:39;;;;;;;23.40;17.02;;;;;;;8.40;82.09;100848.78;5053761;28;20108;-63
2021/11/20 11:16:26;;;;;;;19.08;14.23;;;;;;;8.40;82.10;100841.03;5054668;28;20057;-63
2021/11/20 11:19:09;;;;;;;21.85;16.15;;;;;;;8.42;82.15;100835.91;5053850;28;20074;-63
2021/11/20 11:21:59;;;;;;;20.10;15.18;;;;;;;8.42;81.98;100828.16;5054715;28;20111;-63
2021/11/20 11:24:47;;;;;;;22.02;16.33;;;;;;;8.41;81.93;100826.44;5054450;28;20033;-63
2021/11/20 11:27:41;;;;;;;21.23;16.92;;;;;;;8.39;81.95;100826.34;5054742;28;20106;-63
2021/11/20 11:30:30;;;;;;;25.65;18.02;;;;;;;8.36;81.74;100827.13;5030132;28;20049;-63
2021/11/20 11:32:59;;;;;;;24.85;17.55;;;;;;;8.35;81.87;100817.63;5036820;28;20526;-62
2021/11/20 11:35:58;;;;;;;22.35;17.42;;;;;;;8.33;81.69;100814.09;5054351;28;20045;-63
2021/11/20 11:38:35;;;;;;;23.85;17.13;;;;;;;8.33;81.85;100803.75;5054345;28;20040;-62
2021/11/20 11:41:21;;;;;;;20.88;16.52;;;;;;;8.33;81.74;100805.47;5053051;28;20044;-63
2021/11/20 11:44:05;;;;;;;21.95;16.27;;;;;;;8.33;81.65;100800.31;5036146;28;20124;-63
2021/11/20 11:46:54;;;;;;;25.98;18.50;;;;;;;8.32;81.72;100802.00;5054295;28;20120;-63
2021/11/20 11:49:40;;;;;;;25.67;18.35;;;;;;;8.32;81.60;100791.66;5052216;28;20507;-63
2021/11/20 11:52:20;;;;;;;28.27;18.55;;;;;;;8.31;81.68;100786.47;5053344;28;20037;-63
2021/11/20 11:55:06;;;;;;;22.17;16.70;;;;;;;8.32;81.74;100780.47;5054282;28;20037;-63
2021/11/20 11:57:55;;;;;;;25.17;17.63;;;;;;;8.32;81.58;100772.72;5054140;28;20049;-62
2021/11/20 12:00:37;;;;;;;29.13;19.65;;;;;;;8.31;81.74;100769.25;5036504;28;20029;-63
2021/11/20 12:03:30;;;;;;;27.20;19.63;;;;;;;8.30;81.69;100764.91;5036533;28;20053;-63
2021/11/20 12:06:17;;;;;;;27.00;18.88;;;;;;;8.32;81.54;100771.00;5026079;28;20049;-64
2021/11/20 12:09:23;;;;;;;28.65;18.85;;;;;;;8.33;81.54;100759.00;5052596;28;20044;-63
2021/11/20 12:12:11;;;;;;;23.77;18.25;;;;;;;8.33;81.58;100753.81;5032324;28;20044;-62
2021/11/20 12:14:47;;;;;;;27.85;17.92;;;;;;;8.34;81.68;100750.38;5053343;28;20044;-63